Airport Name : Orlando Intl

Other Name : Orlando Intl

ICAO : KMCO

IATA : MCO

FAA : MCO

Latitude : 28.429394

Longitude : -81.308994

Country : United States

Local Date and Time : 29 Oct 2020 00:08

 

TAF (Terminal Aerodrome Forecast)

KMCO 290258Z 2903/3006 13006KT P6SM FEW030 FM290800 16004KT P6SM FEW020 FEW250 FM291500 20011KT P6SM SCT030 SCT250 FM300000 24005KT P6SM FEW030

 

METAR (METeorological Aerodrome Report)

KMCO 290353Z 14008KT 10SM CLR 25/24 A3000 RMK AO2 SLP156 T02500239

KMCO 290253Z 14011KT 10SM CLR 26/24 A3000 RMK AO2 SLP157 T02560239 50001

KMCO 290153Z 13008KT 10SM CLR 26/23 A3001 RMK AO2 SLP160 T02560233

KMCO 290053Z 12010KT 10SM FEW250 26/23 A3000 RMK AO2 SLP158 T02610233

To Charter a Jet Click here.